Mobeetie, Texas
Current Conditions -  °F | °C
As of 7:15 PM on Tuesday 21 Oct 2014 (Local Time) from KHHF Reporting Station
Clear Clear  
Wind Chill: 72°   Ceiling: Unl
Heat Index: 72°   Visibility: 10mi
Dew Point: 54°   Wind: 7mph
Humidity: 53%   Direction: 160°SSE
Pressure: 30.02"   Gusts: NA
Location:  35.51°N, 100.44°W
Report Text: KHHF 220015Z AUTO 16006KT 10SM CLR 22/12 A3002 RMK AO2 T02200120
Loading
Personal Weather Stations






























Interactive Weather Map
Tropical Storm Tracking
New forecast layout! Learn more

10-Day Weather Forecast

Advertisements
Track Severe Weather on mobile